Hilda, Canada
Current Conditions -  °F | °C
As of 10:00 AM on Friday 31 Oct 2014 (Local Time) from CYXH Reporting Station
Broken Clouds Broken Clouds  
Wind Chill: 52°   Ceiling: 27000
Heat Index: 52°   Visibility: 30mi
Dew Point: 34°   Wind: 13mph
Humidity: 50%   Direction: 200°SSW
Pressure: 29.72"   Gusts: 22mph
Location:  50.48°N, 110.02°W
Report Text: CYXH 311600Z 20011G19KT 30SM BKN270 11/01 A2972 RMK CI6 SLP077 DENSITY ALT 2600FT
Loading
Personal Weather Stations






























Interactive Weather Map
Tropical Storm Tracking
New forecast layout! Learn more

10-Day Weather Forecast

Advertisements
Track Severe Weather on mobile